Terminal Aerodrome Forecast
Issued by NWS

Home | Current Version | Previous Version | Text Only | Print | Product List | Glossary On
Versions: 1 2 3 4 5 6 7 8 9 10 11 12 13 14 15 16 17 18 19 20 21 22 23 24 25 26
000
FTUS43 KMKX 202330
TAFENW
TAF
KENW 202330Z 2100/2124 12004KT 1/4SM -DZ FG OVC002
     FM211300 16005KT 1/4SM -DZ FG OVC003
     FM211500 16006KT 1/2SM -DZ FG OVC003
     FM211600 16007KT 1SM -DZ BR OVC008
     FM211700 17008KT 3SM -DZ BR OVC015
     FM211900 17008KT 5SM -DZ BR OVC010
     FM212100 18008KT P6SM OVC025=

USA.gov is the U.S. government's official web portal to all federal, state and local government web resources and services.